sensor_id;sensor_type;location;lat;lon;timestamp;temperature;humidity
28484;DHT22;15704;48.834;8.736;2023-02-18T00:01:19;10.30;99.90
28484;DHT22;15704;48.834;8.736;2023-02-18T00:03:46;10.30;99.90
28484;DHT22;15704;48.834;8.736;2023-02-18T00:08:46;10.30;99.90
28484;DHT22;15704;48.834;8.736;2023-02-18T00:11:13;10.30;99.90
28484;DHT22;15704;48.834;8.736;2023-02-18T00:13:41;10.30;99.90
28484;DHT22;15704;48.834;8.736;2023-02-18T00:16:10;10.30;99.90
28484;DHT22;15704;48.834;8.736;2023-02-18T00:18:38;10.30;99.90
28484;DHT22;15704;48.834;8.736;2023-02-18T00:21:06;10.30;99.90
28484;DHT22;15704;48.834;8.736;2023-02-18T00:23:33;10.30;99.90
28484;DHT22;15704;48.834;8.736;2023-02-18T00:26:01;10.30;99.90
28484;DHT22;15704;48.834;8.736;2023-02-18T00:28:28;10.30;99.90
28484;DHT22;15704;48.834;8.736;2023-02-18T00:30:55;10.30;99.90
28484;DHT22;15704;48.834;8.736;2023-02-18T00:33:22;10.40;99.90
28484;DHT22;15704;48.834;8.736;2023-02-18T00:35:48;10.30;99.90
28484;DHT22;15704;48.834;8.736;2023-02-18T00:38:16;10.30;99.90
28484;DHT22;15704;48.834;8.736;2023-02-18T00:40:42;10.30;99.90
28484;DHT22;15704;48.834;8.736;2023-02-18T00:43:10;10.30;99.90
28484;DHT22;15704;48.834;8.736;2023-02-18T00:45:47;10.40;99.90
28484;DHT22;15704;48.834;8.736;2023-02-18T00:48:14;10.30;99.90
28484;DHT22;15704;48.834;8.736;2023-02-18T00:50:40;10.30;99.90
28484;DHT22;15704;48.834;8.736;2023-02-18T00:53:07;10.30;99.90
28484;DHT22;15704;48.834;8.736;2023-02-18T00:55:39;10.30;99.90
28484;DHT22;15704;48.834;8.736;2023-02-18T00:58:06;10.30;99.90
28484;DHT22;15704;48.834;8.736;2023-02-18T01:00:33;10.30;99.90
28484;DHT22;15704;48.834;8.736;2023-02-18T01:02:59;10.30;99.90
28484;DHT22;15704;48.834;8.736;2023-02-18T01:05:26;10.20;99.90
28484;DHT22;15704;48.834;8.736;2023-02-18T01:07:53;10.30;99.90
28484;DHT22;15704;48.834;8.736;2023-02-18T01:10:20;10.30;99.90
28484;DHT22;15704;48.834;8.736;2023-02-18T01:12:47;10.30;99.90
28484;DHT22;15704;48.834;8.736;2023-02-18T01:18:09;10.30;99.90
28484;DHT22;15704;48.834;8.736;2023-02-18T01:20:37;10.30;99.90
28484;DHT22;15704;48.834;8.736;2023-02-18T01:23:07;10.30;99.90
28484;DHT22;15704;48.834;8.736;2023-02-18T01:25:43;10.30;99.90
28484;DHT22;15704;48.834;8.736;2023-02-18T01:28:11;10.30;99.90
28484;DHT22;15704;48.834;8.736;2023-02-18T01:30:39;10.30;99.90
28484;DHT22;15704;48.834;8.736;2023-02-18T01:33:09;10.30;99.90
28484;DHT22;15704;48.834;8.736;2023-02-18T01:35:38;10.30;99.90
28484;DHT22;15704;48.834;8.736;2023-02-18T01:38:05;10.20;99.90
28484;DHT22;15704;48.834;8.736;2023-02-18T01:40:50;10.20;99.90
28484;DHT22;15704;48.834;8.736;2023-02-18T01:43:18;10.20;99.90
28484;DHT22;15704;48.834;8.736;2023-02-18T01:51:23;10.20;99.90
28484;DHT22;15704;48.834;8.736;2023-02-18T01:54:10;10.20;99.90
28484;DHT22;15704;48.834;8.736;2023-02-18T01:56:54;10.20;99.90
28484;DHT22;15704;48.834;8.736;2023-02-18T01:59:29;10.20;99.90
28484;DHT22;15704;48.834;8.736;2023-02-18T02:01:57;10.20;99.90
28484;DHT22;15704;48.834;8.736;2023-02-18T02:04:25;10.20;99.90
28484;DHT22;15704;48.834;8.736;2023-02-18T02:06:52;10.20;99.90
28484;DHT22;15704;48.834;8.736;2023-02-18T02:09:21;10.20;99.90
28484;DHT22;15704;48.834;8.736;2023-02-18T02:11:56;10.20;99.90
28484;DHT22;15704;48.834;8.736;2023-02-18T02:29:10;10.30;99.90
28484;DHT22;15704;48.834;8.736;2023-02-18T02:32:13;10.30;99.90
28484;DHT22;15704;48.834;8.736;2023-02-18T02:35:09;10.30;99.90
28484;DHT22;15704;48.834;8.736;2023-02-18T02:37:51;10.30;99.90
28484;DHT22;15704;48.834;8.736;2023-02-18T02:40:38;10.30;99.90
28484;DHT22;15704;48.834;8.736;2023-02-18T02:53:41;10.30;99.90
28484;DHT22;15704;48.834;8.736;2023-02-18T02:56:20;10.30;99.90
28484;DHT22;15704;48.834;8.736;2023-02-18T02:59:00;10.30;99.90
28484;DHT22;15704;48.834;8.736;2023-02-18T03:04:23;10.30;99.90
28484;DHT22;15704;48.834;8.736;2023-02-18T03:09:38;10.30;99.90
28484;DHT22;15704;48.834;8.736;2023-02-18T03:15:43;10.30;99.90
28484;DHT22;15704;48.834;8.736;2023-02-18T03:21:21;10.30;99.90
28484;DHT22;15704;48.834;8.736;2023-02-18T03:27:05;10.30;99.90
28484;DHT22;15704;48.834;8.736;2023-02-18T03:29:34;10.30;99.90
28484;DHT22;15704;48.834;8.736;2023-02-18T03:32:04;10.30;99.90
28484;DHT22;15704;48.834;8.736;2023-02-18T03:34:36;10.30;99.90
28484;DHT22;15704;48.834;8.736;2023-02-18T03:37:05;10.30;99.90
28484;DHT22;15704;48.834;8.736;2023-02-18T03:39:36;10.30;99.90
28484;DHT22;15704;48.834;8.736;2023-02-18T03:42:04;10.30;99.90
28484;DHT22;15704;48.834;8.736;2023-02-18T03:44:31;10.40;99.90
28484;DHT22;15704;48.834;8.736;2023-02-18T03:46:58;10.40;99.90
28484;DHT22;15704;48.834;8.736;2023-02-18T03:49:27;10.40;99.90
28484;DHT22;15704;48.834;8.736;2023-02-18T03:52:00;10.40;99.90
28484;DHT22;15704;48.834;8.736;2023-02-18T03:54:27;10.40;99.90
28484;DHT22;15704;48.834;8.736;2023-02-18T03:56:54;10.40;99.90
28484;DHT22;15704;48.834;8.736;2023-02-18T03:59:20;10.40;99.90
28484;DHT22;15704;48.834;8.736;2023-02-18T04:01:55;10.40;99.90
28484;DHT22;15704;48.834;8.736;2023-02-18T04:04:28;10.50;99.90
28484;DHT22;15704;48.834;8.736;2023-02-18T04:06:55;10.50;99.90
28484;DHT22;15704;48.834;8.736;2023-02-18T04:09:21;10.40;99.90
28484;DHT22;15704;48.834;8.736;2023-02-18T04:11:48;10.50;99.90
28484;DHT22;15704;48.834;8.736;2023-02-18T04:14:15;10.50;99.90
28484;DHT22;15704;48.834;8.736;2023-02-18T04:16:42;10.50;99.90
28484;DHT22;15704;48.834;8.736;2023-02-18T04:19:12;10.50;99.90
28484;DHT22;15704;48.834;8.736;2023-02-18T04:21:38;10.50;99.90
28484;DHT22;15704;48.834;8.736;2023-02-18T04:24:05;10.50;99.90
28484;DHT22;15704;48.834;8.736;2023-02-18T04:26:32;10.50;99.90
28484;DHT22;15704;48.834;8.736;2023-02-18T04:28:59;10.50;99.90
28484;DHT22;15704;48.834;8.736;2023-02-18T04:31:26;10.50;99.90
28484;DHT22;15704;48.834;8.736;2023-02-18T04:33:53;10.40;99.90
28484;DHT22;15704;48.834;8.736;2023-02-18T04:36:20;10.50;99.90
28484;DHT22;15704;48.834;8.736;2023-02-18T04:38:46;10.50;99.90
28484;DHT22;15704;48.834;8.736;2023-02-18T04:41:13;10.50;99.90
28484;DHT22;15704;48.834;8.736;2023-02-18T04:43:40;10.40;99.90
28484;DHT22;15704;48.834;8.736;2023-02-18T04:46:07;10.40;99.90
28484;DHT22;15704;48.834;8.736;2023-02-18T04:48:34;10.40;99.90
28484;DHT22;15704;48.834;8.736;2023-02-18T04:51:01;10.40;99.90
28484;DHT22;15704;48.834;8.736;2023-02-18T04:53:28;10.40;99.90
28484;DHT22;15704;48.834;8.736;2023-02-18T04:55:55;10.40;99.90
28484;DHT22;15704;48.834;8.736;2023-02-18T04:58:22;10.50;99.90
28484;DHT22;15704;48.834;8.736;2023-02-18T05:00:49;10.50;99.90
28484;DHT22;15704;48.834;8.736;2023-02-18T05:03:15;10.50;99.90
28484;DHT22;15704;48.834;8.736;2023-02-18T05:05:42;10.50;99.90
28484;DHT22;15704;48.834;8.736;2023-02-18T05:08:09;10.50;99.90
28484;DHT22;15704;48.834;8.736;2023-02-18T05:10:36;10.60;99.90
28484;DHT22;15704;48.834;8.736;2023-02-18T05:13:04;10.50;99.90
28484;DHT22;15704;48.834;8.736;2023-02-18T05:15:30;10.50;99.90
28484;DHT22;15704;48.834;8.736;2023-02-18T05:17:57;10.50;99.90
28484;DHT22;15704;48.834;8.736;2023-02-18T05:20:24;10.50;99.90
28484;DHT22;15704;48.834;8.736;2023-02-18T05:22:50;10.50;99.90
28484;DHT22;15704;48.834;8.736;2023-02-18T05:25:17;10.60;99.90
28484;DHT22;15704;48.834;8.736;2023-02-18T05:27:44;10.50;99.90
28484;DHT22;15704;48.834;8.736;2023-02-18T05:30:11;10.60;99.90
28484;DHT22;15704;48.834;8.736;2023-02-18T05:32:38;10.60;99.90
28484;DHT22;15704;48.834;8.736;2023-02-18T05:35:05;10.50;99.90
28484;DHT22;15704;48.834;8.736;2023-02-18T05:37:32;10.60;99.90
28484;DHT22;15704;48.834;8.736;2023-02-18T05:40:05;10.60;99.90
28484;DHT22;15704;48.834;8.736;2023-02-18T05:42:36;10.60;99.90
28484;DHT22;15704;48.834;8.736;2023-02-18T05:45:08;10.60;99.90
28484;DHT22;15704;48.834;8.736;2023-02-18T05:47:46;10.60;99.90
28484;DHT22;15704;48.834;8.736;2023-02-18T05:50:17;10.60;99.90
28484;DHT22;15704;48.834;8.736;2023-02-18T05:52:43;10.60;99.90
28484;DHT22;15704;48.834;8.736;2023-02-18T05:55:10;10.50;99.90
28484;DHT22;15704;48.834;8.736;2023-02-18T05:57:37;10.50;99.90
28484;DHT22;15704;48.834;8.736;2023-02-18T06:00:15;10.50;99.90
28484;DHT22;15704;48.834;8.736;2023-02-18T06:02:46;10.50;99.90
28484;DHT22;15704;48.834;8.736;2023-02-18T06:05:14;10.60;99.90
28484;DHT22;15704;48.834;8.736;2023-02-18T06:07:41;10.60;99.90
28484;DHT22;15704;48.834;8.736;2023-02-18T06:10:08;10.60;99.90
28484;DHT22;15704;48.834;8.736;2023-02-18T06:12:35;10.60;99.90
28484;DHT22;15704;48.834;8.736;2023-02-18T06:15:01;10.60;99.90
28484;DHT22;15704;48.834;8.736;2023-02-18T06:17:44;10.60;99.90
28484;DHT22;15704;48.834;8.736;2023-02-18T06:20:12;10.60;99.90
28484;DHT22;15704;48.834;8.736;2023-02-18T06:22:39;10.60;99.90
28484;DHT22;15704;48.834;8.736;2023-02-18T06:25:12;10.60;99.90
28484;DHT22;15704;48.834;8.736;2023-02-18T06:27:44;10.60;99.90
28484;DHT22;15704;48.834;8.736;2023-02-18T06:30:15;10.60;99.90
28484;DHT22;15704;48.834;8.736;2023-02-18T06:32:41;10.60;99.90
28484;DHT22;15704;48.834;8.736;2023-02-18T06:35:13;10.60;99.90
28484;DHT22;15704;48.834;8.736;2023-02-18T06:37:45;10.70;99.90
28484;DHT22;15704;48.834;8.736;2023-02-18T06:40:26;10.70;99.90
28484;DHT22;15704;48.834;8.736;2023-02-18T06:42:53;10.70;99.90
28484;DHT22;15704;48.834;8.736;2023-02-18T06:45:19;10.60;99.90
28484;DHT22;15704;48.834;8.736;2023-02-18T06:47:46;10.60;99.90
28484;DHT22;15704;48.834;8.736;2023-02-18T06:50:19;10.60;99.90
28484;DHT22;15704;48.834;8.736;2023-02-18T06:52:49;10.70;99.90
28484;DHT22;15704;48.834;8.736;2023-02-18T06:55:16;10.70;99.90
28484;DHT22;15704;48.834;8.736;2023-02-18T06:57:54;10.70;99.90
28484;DHT22;15704;48.834;8.736;2023-02-18T07:00:36;10.70;99.90
28484;DHT22;15704;48.834;8.736;2023-02-18T07:03:04;10.70;99.90
28484;DHT22;15704;48.834;8.736;2023-02-18T07:05:31;10.70;99.90
28484;DHT22;15704;48.834;8.736;2023-02-18T07:08:00;10.70;99.90
28484;DHT22;15704;48.834;8.736;2023-02-18T07:10:33;10.70;99.90
28484;DHT22;15704;48.834;8.736;2023-02-18T07:13:04;10.70;99.90
28484;DHT22;15704;48.834;8.736;2023-02-18T07:15:31;10.70;99.90
28484;DHT22;15704;48.834;8.736;2023-02-18T07:18:15;10.80;99.90
28484;DHT22;15704;48.834;8.736;2023-02-18T07:20:42;10.80;99.90
28484;DHT22;15704;48.834;8.736;2023-02-18T07:23:17;10.80;99.90
28484;DHT22;15704;48.834;8.736;2023-02-18T07:25:46;10.90;99.90
28484;DHT22;15704;48.834;8.736;2023-02-18T07:28:13;10.90;99.90
28484;DHT22;15704;48.834;8.736;2023-02-18T07:30:40;10.90;99.90
28484;DHT22;15704;48.834;8.736;2023-02-18T07:33:06;10.90;99.90
28484;DHT22;15704;48.834;8.736;2023-02-18T07:35:33;10.90;99.90
28484;DHT22;15704;48.834;8.736;2023-02-18T07:38:03;11.00;99.90
28484;DHT22;15704;48.834;8.736;2023-02-18T07:40:43;11.00;99.90
28484;DHT22;15704;48.834;8.736;2023-02-18T07:43:18;11.00;99.90
28484;DHT22;15704;48.834;8.736;2023-02-18T07:45:48;11.10;99.90
28484;DHT22;15704;48.834;8.736;2023-02-18T07:48:15;11.10;99.90
28484;DHT22;15704;48.834;8.736;2023-02-18T07:50:43;11.10;99.90
28484;DHT22;15704;48.834;8.736;2023-02-18T07:53:12;11.10;99.90
28484;DHT22;15704;48.834;8.736;2023-02-18T07:55:42;11.10;99.90
28484;DHT22;15704;48.834;8.736;2023-02-18T07:58:22;11.20;99.90
28484;DHT22;15704;48.834;8.736;2023-02-18T08:00:51;11.10;99.90
28484;DHT22;15704;48.834;8.736;2023-02-18T08:03:30;11.20;99.90
28484;DHT22;15704;48.834;8.736;2023-02-18T08:06:00;11.20;99.90
28484;DHT22;15704;48.834;8.736;2023-02-18T08:08:29;11.20;99.90
28484;DHT22;15704;48.834;8.736;2023-02-18T08:10:58;11.10;99.90
28484;DHT22;15704;48.834;8.736;2023-02-18T08:13:39;11.10;99.90
28484;DHT22;15704;48.834;8.736;2023-02-18T08:16:05;11.20;99.90
28484;DHT22;15704;48.834;8.736;2023-02-18T08:18:33;11.20;99.90
28484;DHT22;15704;48.834;8.736;2023-02-18T08:20:59;11.30;99.90
28484;DHT22;15704;48.834;8.736;2023-02-18T08:23:29;11.20;99.90
28484;DHT22;15704;48.834;8.736;2023-02-18T08:25:56;11.20;99.90
28484;DHT22;15704;48.834;8.736;2023-02-18T08:28:23;11.30;99.90
28484;DHT22;15704;48.834;8.736;2023-02-18T08:30:52;11.30;99.90
28484;DHT22;15704;48.834;8.736;2023-02-18T08:33:20;11.40;99.90
28484;DHT22;15704;48.834;8.736;2023-02-18T08:35:53;11.40;99.90
28484;DHT22;15704;48.834;8.736;2023-02-18T08:38:23;11.50;99.90
28484;DHT22;15704;48.834;8.736;2023-02-18T08:41:03;11.40;99.90
28484;DHT22;15704;48.834;8.736;2023-02-18T08:43:35;11.40;99.90
28484;DHT22;15704;48.834;8.736;2023-02-18T08:46:08;11.40;99.90
28484;DHT22;15704;48.834;8.736;2023-02-18T08:48:50;11.40;99.90
28484;DHT22;15704;48.834;8.736;2023-02-18T08:51:20;11.50;99.90
28484;DHT22;15704;48.834;8.736;2023-02-18T08:53:47;11.50;99.90
28484;DHT22;15704;48.834;8.736;2023-02-18T08:56:15;11.50;99.90
28484;DHT22;15704;48.834;8.736;2023-02-18T08:58:44;11.60;99.90
28484;DHT22;15704;48.834;8.736;2023-02-18T09:01:19;11.90;99.90
28484;DHT22;15704;48.834;8.736;2023-02-18T09:03:50;12.00;99.90
28484;DHT22;15704;48.834;8.736;2023-02-18T09:06:17;12.10;99.90
28484;DHT22;15704;48.834;8.736;2023-02-18T09:08:44;12.20;99.90
28484;DHT22;15704;48.834;8.736;2023-02-18T09:11:11;12.10;99.90
28484;DHT22;15704;48.834;8.736;2023-02-18T09:13:38;12.00;99.90
28484;DHT22;15704;48.834;8.736;2023-02-18T09:16:12;12.20;99.90
28484;DHT22;15704;48.834;8.736;2023-02-18T09:18:49;12.30;99.90
28484;DHT22;15704;48.834;8.736;2023-02-18T09:21:22;12.20;99.90
28484;DHT22;15704;48.834;8.736;2023-02-18T09:23:49;12.40;99.90
28484;DHT22;15704;48.834;8.736;2023-02-18T09:26:20;12.60;99.90
28484;DHT22;15704;48.834;8.736;2023-02-18T09:28:49;12.50;99.90
28484;DHT22;15704;48.834;8.736;2023-02-18T09:31:22;12.40;99.90
28484;DHT22;15704;48.834;8.736;2023-02-18T09:33:57;12.30;99.90
28484;DHT22;15704;48.834;8.736;2023-02-18T09:36:24;12.30;99.90
28484;DHT22;15704;48.834;8.736;2023-02-18T09:38:51;12.30;99.90
28484;DHT22;15704;48.834;8.736;2023-02-18T09:44:12;12.30;99.90
28484;DHT22;15704;48.834;8.736;2023-02-18T09:47:34;12.30;99.90
28484;DHT22;15704;48.834;8.736;2023-02-18T09:49:39;12.30;99.90
28484;DHT22;15704;48.834;8.736;2023-02-18T09:52:30;12.10;99.90
28484;DHT22;15704;48.834;8.736;2023-02-18T09:54:57;12.10;99.90
28484;DHT22;15704;48.834;8.736;2023-02-18T09:57:44;12.20;99.90
28484;DHT22;15704;48.834;8.736;2023-02-18T10:00:33;12.20;99.90
28484;DHT22;15704;48.834;8.736;2023-02-18T10:03:26;12.00;99.90
28484;DHT22;15704;48.834;8.736;2023-02-18T10:06:08;12.00;99.90
28484;DHT22;15704;48.834;8.736;2023-02-18T10:08:46;12.00;99.90
28484;DHT22;15704;48.834;8.736;2023-02-18T10:11:28;12.10;99.90
28484;DHT22;15704;48.834;8.736;2023-02-18T10:13:55;12.10;99.90
28484;DHT22;15704;48.834;8.736;2023-02-18T10:16:23;12.10;99.90
28484;DHT22;15704;48.834;8.736;2023-02-18T10:18:56;12.10;99.90
28484;DHT22;15704;48.834;8.736;2023-02-18T10:21:27;12.10;99.90
28484;DHT22;15704;48.834;8.736;2023-02-18T10:24:35;12.20;99.90
28484;DHT22;15704;48.834;8.736;2023-02-18T10:27:06;12.30;99.90
28484;DHT22;15704;48.834;8.736;2023-02-18T10:29:33;12.20;99.90
28484;DHT22;15704;48.834;8.736;2023-02-18T10:34:47;12.30;99.90
28484;DHT22;15704;48.834;8.736;2023-02-18T10:40:07;12.10;99.90
28484;DHT22;15704;48.834;8.736;2023-02-18T10:45:54;12.10;99.90
28484;DHT22;15704;48.834;8.736;2023-02-18T10:51:05;12.10;99.90
28484;DHT22;15704;48.834;8.736;2023-02-18T10:53:39;12.10;99.90
28484;DHT22;15704;48.834;8.736;2023-02-18T10:56:39;12.20;99.90
28484;DHT22;15704;48.834;8.736;2023-02-18T10:59:30;12.20;99.90
28484;DHT22;15704;48.834;8.736;2023-02-18T11:02:15;12.20;99.90
28484;DHT22;15704;48.834;8.736;2023-02-18T11:04:44;12.20;99.90
28484;DHT22;15704;48.834;8.736;2023-02-18T11:07:14;12.20;99.90
28484;DHT22;15704;48.834;8.736;2023-02-18T11:09:49;12.10;99.90
28484;DHT22;15704;48.834;8.736;2023-02-18T11:12:46;12.20;99.90
28484;DHT22;15704;48.834;8.736;2023-02-18T11:17:42;12.40;99.90
28484;DHT22;15704;48.834;8.736;2023-02-18T11:20:31;12.30;99.90
28484;DHT22;15704;48.834;8.736;2023-02-18T11:25:29;12.20;99.90
28484;DHT22;15704;48.834;8.736;2023-02-18T11:28:04;12.20;99.90
28484;DHT22;15704;48.834;8.736;2023-02-18T11:30:37;12.20;99.90
28484;DHT22;15704;48.834;8.736;2023-02-18T11:33:38;12.30;99.90
28484;DHT22;15704;48.834;8.736;2023-02-18T11:36:31;12.30;99.90
28484;DHT22;15704;48.834;8.736;2023-02-18T11:39:04;12.20;99.90
28484;DHT22;15704;48.834;8.736;2023-02-18T11:41:34;12.20;99.90
28484;DHT22;15704;48.834;8.736;2023-02-18T11:44:03;12.20;99.90
28484;DHT22;15704;48.834;8.736;2023-02-18T11:46:31;12.30;99.90
28484;DHT22;15704;48.834;8.736;2023-02-18T11:49:20;12.30;99.90
28484;DHT22;15704;48.834;8.736;2023-02-18T11:51:48;12.40;99.90
28484;DHT22;15704;48.834;8.736;2023-02-18T11:54:25;12.40;99.90
28484;DHT22;15704;48.834;8.736;2023-02-18T11:57:12;12.30;99.90
28484;DHT22;15704;48.834;8.736;2023-02-18T11:59:41;12.20;99.90
28484;DHT22;15704;48.834;8.736;2023-02-18T12:04:53;12.30;99.90
28484;DHT22;15704;48.834;8.736;2023-02-18T12:07:28;12.20;99.90
28484;DHT22;15704;48.834;8.736;2023-02-18T12:10:02;12.30;99.90
28484;DHT22;15704;48.834;8.736;2023-02-18T12:12:34;12.40;99.90
28484;DHT22;15704;48.834;8.736;2023-02-18T12:15:03;12.50;99.90
28484;DHT22;15704;48.834;8.736;2023-02-18T12:23:05;12.40;99.90
28484;DHT22;15704;48.834;8.736;2023-02-18T12:28:34;12.40;99.90
28484;DHT22;15704;48.834;8.736;2023-02-18T12:31:26;12.40;99.90
28484;DHT22;15704;48.834;8.736;2023-02-18T12:36:48;12.20;99.90
28484;DHT22;15704;48.834;8.736;2023-02-18T12:42:32;12.10;99.90
28484;DHT22;15704;48.834;8.736;2023-02-18T12:53:59;12.30;99.90
28484;DHT22;15704;48.834;8.736;2023-02-18T12:59:43;12.70;99.90
28484;DHT22;15704;48.834;8.736;2023-02-18T13:05:03;12.50;99.90
28484;DHT22;15704;48.834;8.736;2023-02-18T13:08:00;12.60;99.90
28484;DHT22;15704;48.834;8.736;2023-02-18T13:10:51;12.50;99.90
28484;DHT22;15704;48.834;8.736;2023-02-18T13:13:22;12.50;99.90
28484;DHT22;15704;48.834;8.736;2023-02-18T13:16:00;12.30;99.90
28484;DHT22;15704;48.834;8.736;2023-02-18T13:21:12;12.20;99.90
28484;DHT22;15704;48.834;8.736;2023-02-18T13:24:01;12.20;99.90
28484;DHT22;15704;48.834;8.736;2023-02-18T13:26:32;12.30;99.90
28484;DHT22;15704;48.834;8.736;2023-02-18T13:29:15;12.20;99.90
28484;DHT22;15704;48.834;8.736;2023-02-18T13:32:09;12.40;99.90
28484;DHT22;15704;48.834;8.736;2023-02-18T13:40:17;12.60;99.90
28484;DHT22;15704;48.834;8.736;2023-02-18T13:42:45;12.70;99.90
28484;DHT22;15704;48.834;8.736;2023-02-18T13:47:53;12.40;99.90
28484;DHT22;15704;48.834;8.736;2023-02-18T13:52:58;12.30;99.90
28484;DHT22;15704;48.834;8.736;2023-02-18T13:55:40;12.30;99.90
28484;DHT22;15704;48.834;8.736;2023-02-18T14:00:52;12.30;99.90
28484;DHT22;15704;48.834;8.736;2023-02-18T14:05:59;12.20;99.90
28484;DHT22;15704;48.834;8.736;2023-02-18T14:08:34;12.10;99.90
28484;DHT22;15704;48.834;8.736;2023-02-18T14:16:07;12.30;99.90
28484;DHT22;15704;48.834;8.736;2023-02-18T14:31:01;12.30;99.90
28484;DHT22;15704;48.834;8.736;2023-02-18T14:33:34;12.40;99.90
28484;DHT22;15704;48.834;8.736;2023-02-18T14:38:58;12.00;99.90
28484;DHT22;15704;48.834;8.736;2023-02-18T14:42:02;12.10;99.90
28484;DHT22;15704;48.834;8.736;2023-02-18T14:54:53;11.50;99.90
28484;DHT22;15704;48.834;8.736;2023-02-18T14:57:33;11.50;99.90
28484;DHT22;15704;48.834;8.736;2023-02-18T15:00:03;11.50;99.90
28484;DHT22;15704;48.834;8.736;2023-02-18T15:02:35;11.50;99.90
28484;DHT22;15704;48.834;8.736;2023-02-18T15:05:28;11.50;99.90
28484;DHT22;15704;48.834;8.736;2023-02-18T15:08:03;11.40;99.90
28484;DHT22;15704;48.834;8.736;2023-02-18T15:11:02;11.40;99.90
28484;DHT22;15704;48.834;8.736;2023-02-18T15:13:35;11.30;99.90
28484;DHT22;15704;48.834;8.736;2023-02-18T15:16:11;11.20;99.90
28484;DHT22;15704;48.834;8.736;2023-02-18T15:18:50;11.20;99.90
28484;DHT22;15704;48.834;8.736;2023-02-18T15:21:27;11.30;99.90
28484;DHT22;15704;48.834;8.736;2023-02-18T15:23:55;11.20;99.90
28484;DHT22;15704;48.834;8.736;2023-02-18T15:26:29;11.20;99.90
28484;DHT22;15704;48.834;8.736;2023-02-18T15:29:04;11.30;99.90
28484;DHT22;15704;48.834;8.736;2023-02-18T15:31:39;11.20;99.90
28484;DHT22;15704;48.834;8.736;2023-02-18T15:36:56;11.30;99.90
28484;DHT22;15704;48.834;8.736;2023-02-18T15:39:23;11.40;99.90
28484;DHT22;15704;48.834;8.736;2023-02-18T15:42:06;11.50;99.90
28484;DHT22;15704;48.834;8.736;2023-02-18T15:44:35;11.30;99.90
28484;DHT22;15704;48.834;8.736;2023-02-18T15:47:07;11.30;99.90
28484;DHT22;15704;48.834;8.736;2023-02-18T15:49:35;11.30;99.90
28484;DHT22;15704;48.834;8.736;2023-02-18T15:52:03;11.30;99.90
28484;DHT22;15704;48.834;8.736;2023-02-18T15:54:31;11.30;99.90
28484;DHT22;15704;48.834;8.736;2023-02-18T15:57:01;11.10;99.90
28484;DHT22;15704;48.834;8.736;2023-02-18T15:59:32;11.00;99.90
28484;DHT22;15704;48.834;8.736;2023-02-18T16:02:15;11.00;99.90
28484;DHT22;15704;48.834;8.736;2023-02-18T16:04:56;10.90;99.90
28484;DHT22;15704;48.834;8.736;2023-02-18T16:07:28;10.90;99.90
28484;DHT22;15704;48.834;8.736;2023-02-18T16:10:18;10.90;99.90
28484;DHT22;15704;48.834;8.736;2023-02-18T16:12:51;10.80;99.90
28484;DHT22;15704;48.834;8.736;2023-02-18T16:15:28;10.80;99.90
28484;DHT22;15704;48.834;8.736;2023-02-18T16:17:55;10.70;99.90
28484;DHT22;15704;48.834;8.736;2023-02-18T16:20:31;10.70;99.90
28484;DHT22;15704;48.834;8.736;2023-02-18T16:23:01;10.70;99.90
28484;DHT22;15704;48.834;8.736;2023-02-18T16:28:11;10.50;99.90
28484;DHT22;15704;48.834;8.736;2023-02-18T16:30:38;10.50;99.90
28484;DHT22;15704;48.834;8.736;2023-02-18T16:33:09;10.40;99.90
28484;DHT22;15704;48.834;8.736;2023-02-18T16:35:36;10.40;99.90
28484;DHT22;15704;48.834;8.736;2023-02-18T16:38:23;10.30;99.90
28484;DHT22;15704;48.834;8.736;2023-02-18T16:40:52;10.20;99.90
28484;DHT22;15704;48.834;8.736;2023-02-18T16:43:24;10.20;99.90
28484;DHT22;15704;48.834;8.736;2023-02-18T16:45:57;10.10;99.90
28484;DHT22;15704;48.834;8.736;2023-02-18T16:48:33;10.00;99.90
28484;DHT22;15704;48.834;8.736;2023-02-18T16:51:49;10.00;99.90
28484;DHT22;15704;48.834;8.736;2023-02-18T16:53:51;9.90;99.90
28484;DHT22;15704;48.834;8.736;2023-02-18T16:56:25;9.90;99.90
28484;DHT22;15704;48.834;8.736;2023-02-18T16:58:58;9.90;99.90
28484;DHT22;15704;48.834;8.736;2023-02-18T17:01:28;9.90;99.90
28484;DHT22;15704;48.834;8.736;2023-02-18T17:04:00;9.80;99.90
28484;DHT22;15704;48.834;8.736;2023-02-18T17:06:27;9.80;99.90
28484;DHT22;15704;48.834;8.736;2023-02-18T17:08:55;9.80;99.90
28484;DHT22;15704;48.834;8.736;2023-02-18T17:11:22;9.80;99.90
28484;DHT22;15704;48.834;8.736;2023-02-18T17:13:53;9.80;99.90
28484;DHT22;15704;48.834;8.736;2023-02-18T17:16:22;9.80;99.90
28484;DHT22;15704;48.834;8.736;2023-02-18T17:18:49;9.80;99.90
28484;DHT22;15704;48.834;8.736;2023-02-18T17:21:23;9.80;99.90
28484;DHT22;15704;48.834;8.736;2023-02-18T17:23:51;9.80;99.90
28484;DHT22;15704;48.834;8.736;2023-02-18T17:26:26;9.80;99.90
28484;DHT22;15704;48.834;8.736;2023-02-18T17:28:56;9.80;99.90
28484;DHT22;15704;48.834;8.736;2023-02-18T17:31:25;9.80;99.90
28484;DHT22;15704;48.834;8.736;2023-02-18T17:33:57;9.80;99.90
28484;DHT22;15704;48.834;8.736;2023-02-18T17:36:25;9.80;99.90
28484;DHT22;15704;48.834;8.736;2023-02-18T17:38:52;9.90;99.90
28484;DHT22;15704;48.834;8.736;2023-02-18T17:41:19;9.80;99.90
28484;DHT22;15704;48.834;8.736;2023-02-18T17:43:46;9.80;99.90
28484;DHT22;15704;48.834;8.736;2023-02-18T17:46:14;9.80;99.90
28484;DHT22;15704;48.834;8.736;2023-02-18T17:48:42;9.80;99.90
28484;DHT22;15704;48.834;8.736;2023-02-18T17:51:26;9.80;99.90
28484;DHT22;15704;48.834;8.736;2023-02-18T17:53:55;9.90;99.90
28484;DHT22;15704;48.834;8.736;2023-02-18T17:56:22;9.80;99.90
28484;DHT22;15704;48.834;8.736;2023-02-18T17:58:49;9.80;99.90
28484;DHT22;15704;48.834;8.736;2023-02-18T18:01:17;9.80;99.90
28484;DHT22;15704;48.834;8.736;2023-02-18T18:03:46;9.80;99.90
28484;DHT22;15704;48.834;8.736;2023-02-18T18:06:18;9.80;99.90
28484;DHT22;15704;48.834;8.736;2023-02-18T18:08:46;9.80;99.90
28484;DHT22;15704;48.834;8.736;2023-02-18T18:11:21;9.80;99.90
28484;DHT22;15704;48.834;8.736;2023-02-18T18:13:51;9.80;99.90
28484;DHT22;15704;48.834;8.736;2023-02-18T18:16:21;9.80;99.90
28484;DHT22;15704;48.834;8.736;2023-02-18T18:18:47;9.80;99.90
28484;DHT22;15704;48.834;8.736;2023-02-18T18:21:32;9.70;99.90
28484;DHT22;15704;48.834;8.736;2023-02-18T18:24:00;9.70;99.90
28484;DHT22;15704;48.834;8.736;2023-02-18T18:26:29;9.80;99.90
28484;DHT22;15704;48.834;8.736;2023-02-18T18:28:56;9.70;99.90
28484;DHT22;15704;48.834;8.736;2023-02-18T18:31:23;9.70;99.90
28484;DHT22;15704;48.834;8.736;2023-02-18T18:33:51;9.70;99.90
28484;DHT22;15704;48.834;8.736;2023-02-18T18:36:20;9.60;99.90
28484;DHT22;15704;48.834;8.736;2023-02-18T18:38:49;9.50;99.90
28484;DHT22;15704;48.834;8.736;2023-02-18T18:41:18;9.50;99.90